Time;durP1;ratioP1;P1;durP2;ratioP2;P2;SDS_P1;SDS_P2;PMS_P1;PMS_P2;Temp;Humidity;BMP_temperature;BMP_pressure;BME280_temperature;BME280_humidity;BME280_pressure;Samples;Min_cycle;Max_cycle;Signal;HPM_P1;HPM_P2
2023/10/10 00:01:44;;;;;;;13.48;6.70;;;;;;;;;;4990658;28;99485;-63
2023/10/10 00:04:11;;;;;;;11.65;7.78;;;;;;;;;;4991016;28;98798;-63
2023/10/10 00:06:40;;;;;;;19.05;8.55;;;;;;;;;;4990174;28;100202;-63
2023/10/10 00:09:10;;;;;;;24.80;10.70;;;;;;;;;;4986342;28;99479;-63
2023/10/10 00:11:45;;;;;;;20.67;10.52;;;;;;;;;;4989913;28;98466;-63
2023/10/10 00:14:18;;;;;;;17.40;8.73;;;;;;;;;;4986117;28;99839;-63
2023/10/10 00:16:54;;;;;;;16.38;9.30;;;;;;;;;;4990506;28;98589;-62
2023/10/10 00:21:54;;;;;;;16.60;8.93;;;;;;;;;;4989543;28;99353;-63
2023/10/10 00:24:25;;;;;;;23.30;10.45;;;;;;;;;;4989570;28;97751;-63
2023/10/10 00:26:52;;;;;;;27.02;9.50;;;;;;;;;;4989802;28;99560;-62
2023/10/10 00:29:23;;;;;;;23.30;9.20;;;;;;;;;;4990282;28;100432;-63
2023/10/10 00:32:04;;;;;;;22.00;9.45;;;;;;;;;;4990013;28;99409;-63
2023/10/10 00:34:34;;;;;;;20.05;9.30;;;;;;;;;;4993313;28;100875;-62
2023/10/10 00:37:08;;;;;;;24.35;9.98;;;;;;;;;;4990229;28;98992;-62
2023/10/10 00:39:36;;;;;;;15.98;8.95;;;;;;;;;;4988982;28;100289;-63
2023/10/10 00:42:08;;;;;;;12.48;8.02;;;;;;;;;;4989347;28;99421;-63
2023/10/10 00:44:37;;;;;;;14.75;8.55;;;;;;;;;;4989410;28;98590;-63
2023/10/10 00:47:04;;;;;;;17.30;8.73;;;;;;;;;;4990220;28;98966;-62
2023/10/10 00:49:31;;;;;;;18.45;10.05;;;;;;;;;;4990195;28;98729;-63
2023/10/10 00:52:06;;;;;;;17.75;10.30;;;;;;;;;;4989396;28;98698;-62
2023/10/10 00:54:39;;;;;;;19.58;13.05;;;;;;;;;;4989005;28;100208;-62
2023/10/10 00:57:08;;;;;;;27.25;13.80;;;;;;;;;;4988492;28;100245;-62
2023/10/10 00:59:35;;;;;;;24.67;13.73;;;;;;;;;;4988816;28;99930;-62
2023/10/10 01:02:05;;;;;;;26.70;14.70;;;;;;;;;;4988967;28;99605;-62
2023/10/10 01:04:35;;;;;;;20.60;13.83;;;;;;;;;;4989388;28;98668;-63
2023/10/10 01:07:08;;;;;;;24.92;15.45;;;;;;;;;;4989406;28;99210;-62
2023/10/10 01:09:40;;;;;;;28.50;14.13;;;;;;;;;;4988059;28;99537;-63
2023/10/10 01:12:06;;;;;;;24.50;13.73;;;;;;;;;;4984758;28;98555;-62
2023/10/10 01:14:33;;;;;;;22.48;13.75;;;;;;;;;;4989238;28;99201;-62
2023/10/10 01:17:00;;;;;;;25.50;13.45;;;;;;;;;;4988248;28;99712;-63
2023/10/10 01:19:30;;;;;;;21.48;12.82;;;;;;;;;;4992270;28;98666;-63
2023/10/10 01:21:59;;;;;;;22.05;12.73;;;;;;;;;;4988124;28;100470;-62
2023/10/10 01:24:26;;;;;;;18.55;12.82;;;;;;;;;;4988563;28;102070;-63
2023/10/10 01:26:53;;;;;;;22.83;13.75;;;;;;;;;;4988375;28;99208;-63
2023/10/10 01:29:26;;;;;;;22.92;13.57;;;;;;;;;;4988157;28;99730;-63
2023/10/10 01:31:53;;;;;;;31.15;17.02;;;;;;;;;;4988818;28;98956;-62
2023/10/10 01:34:39;;;;;;;27.15;16.92;;;;;;;;;;4988331;28;100393;-62
2023/10/10 01:37:20;;;;;;;26.70;17.25;;;;;;;;;;4987225;28;100090;-63
2023/10/10 01:39:51;;;;;;;25.27;14.95;;;;;;;;;;4989591;28;97899;-63
2023/10/10 01:42:23;;;;;;;24.60;14.80;;;;;;;;;;4991770;28;99971;-63
2023/10/10 01:44:51;;;;;;;20.50;14.00;;;;;;;;;;4988459;28;98674;-62
2023/10/10 01:47:26;;;;;;;19.55;13.35;;;;;;;;;;4987970;28;100134;-62
2023/10/10 01:49:58;;;;;;;25.50;13.82;;;;;;;;;;4988394;28;100460;-63
2023/10/10 01:52:25;;;;;;;31.38;16.77;;;;;;;;;;4988100;28;98526;-62
2023/10/10 01:54:54;;;;;;;26.33;15.57;;;;;;;;;;4986242;28;99214;-62
2023/10/10 01:57:21;;;;;;;22.48;14.30;;;;;;;;;;4987414;28;100395;-63
2023/10/10 01:59:49;;;;;;;25.00;14.80;;;;;;;;;;4987253;28;98652;-63
2023/10/10 02:02:16;;;;;;;22.77;14.35;;;;;;;;;;4987825;28;99188;-62
2023/10/10 02:04:45;;;;;;;28.77;14.67;;;;;;;;;;4991568;28;99045;-63
2023/10/10 02:07:23;;;;;;;27.20;16.50;;;;;;;;;;4987869;28;98636;-62
2023/10/10 02:09:58;;;;;;;26.00;16.20;;;;;;;;;;4985324;28;100514;-63
2023/10/10 02:12:26;;;;;;;25.30;15.30;;;;;;;;;;4987484;28;99186;-62
2023/10/10 02:14:54;;;;;;;18.58;13.82;;;;;;;;;;4987462;28;100913;-62
2023/10/10 02:17:26;;;;;;;25.90;15.07;;;;;;;;;;4988105;28;99447;-62
2023/10/10 02:22:51;;;;;;;24.95;15.73;;;;;;;;;;4967109;28;99520;-62
2023/10/10 02:27:56;;;;;;;26.73;15.32;;;;;;;;;;4987458;28;100380;-63
2023/10/10 02:30:36;;;;;;;22.77;13.70;;;;;;;;;;4987405;28;100079;-62
2023/10/10 02:35:55;;;;;;;21.50;13.60;;;;;;;;;;4984387;28;99350;-63
2023/10/10 02:38:31;;;;;;;21.65;14.63;;;;;;;;;;4987214;28;100112;-63
2023/10/10 02:41:21;;;;;;;21.05;13.98;;;;;;;;;;4986752;28;98500;-63
2023/10/10 02:46:42;;;;;;;28.58;14.82;;;;;;;;;;4972167;28;100460;-62
2023/10/10 02:49:12;;;;;;;22.65;14.18;;;;;;;;;;4993817;28;99362;-62
2023/10/10 02:51:42;;;;;;;22.52;14.88;;;;;;;;;;4991291;28;99510;-62
2023/10/10 02:57:22;;;;;;;22.20;13.45;;;;;;;;;;4991350;28;99332;-62
2023/10/10 02:59:45;;;;;;;30.90;15.32;;;;;;;;;;4987678;28;99447;-63
2023/10/10 03:02:28;;;;;;;27.63;17.63;;;;;;;;;;4991128;28;98431;-63
2023/10/10 03:07:28;;;;;;;27.00;16.77;;;;;;;;;;4989998;28;99704;-62
2023/10/10 03:12:37;;;;;;;31.42;19.55;;;;;;;;;;4993794;28;100391;-63
2023/10/10 03:15:13;;;;;;;39.50;22.45;;;;;;;;;;4990651;28;98713;-63
2023/10/10 03:17:53;;;;;;;46.20;23.92;;;;;;;;;;4990592;28;99195;-62
2023/10/10 03:25:45;;;;;;;65.60;29.48;;;;;;;;;;4990119;28;98646;-62
2023/10/10 03:31:23;;;;;;;62.35;29.55;;;;;;;;;;4987512;28;99539;-63
2023/10/10 03:34:09;;;;;;;61.05;30.77;;;;;;;;;;4987316;28;100518;-63
2023/10/10 03:36:45;;;;;;;80.40;31.65;;;;;;;;;;4992985;28;100409;-62
2023/10/10 05:23:34;;;;;;;56.15;29.67;;;;;;;;;;4985599;28;99915;-63
2023/10/10 05:26:02;;;;;;;50.67;29.42;;;;;;;;;;4987983;28;99912;-63
2023/10/10 05:28:32;;;;;;;64.10;32.03;;;;;;;;;;4989005;28;98708;-62
2023/10/10 05:30:59;;;;;;;;;;;;;;;;;;4989209;28;100613;-63
2023/10/10 05:33:30;;;;;;;65.47;31.60;;;;;;;;;;4989420;28;130269;-63
2023/10/10 05:35:58;;;;;;;56.05;32.13;;;;;;;;;;4991946;28;98793;-62
2023/10/10 05:38:25;;;;;;;77.30;35.53;;;;;;;;;;4988817;28;98735;-62
2023/10/10 05:40:51;;;;;;;58.50;31.95;;;;;;;;;;4988387;28;98473;-63
2023/10/10 05:43:26;;;;;;;67.25;33.28;;;;;;;;;;4984063;28;99541;-62
2023/10/10 05:45:53;;;;;;;74.10;35.53;;;;;;;;;;4983767;28;100190;-63
2023/10/10 05:48:21;;;;;;;71.32;34.00;;;;;;;;;;4987908;28;98584;-63
2023/10/10 05:50:48;;;;;;;65.47;35.42;;;;;;;;;;4988134;28;100515;-63
2023/10/10 05:53:16;;;;;;;66.63;33.85;;;;;;;;;;4987956;28;99548;-63
2023/10/10 05:55:43;;;;;;;61.45;32.92;;;;;;;;;;4988833;28;100006;-63
2023/10/10 05:58:12;;;;;;;63.05;32.47;;;;;;;;;;4991138;28;99426;-63
2023/10/10 06:00:41;;;;;;;66.85;35.60;;;;;;;;;;4990411;28;101955;-63
2023/10/10 06:03:08;;;;;;;63.97;34.40;;;;;;;;;;4986282;28;99552;-63
2023/10/10 06:05:34;;;;;;;66.70;33.90;;;;;;;;;;4987845;28;99629;-63
2023/10/10 06:08:01;;;;;;;58.97;32.85;;;;;;;;;;4988000;28;98704;-63
2023/10/10 06:10:31;;;;;;;64.55;33.25;;;;;;;;;;4986637;28;99856;-63
2023/10/10 06:13:03;;;;;;;64.83;33.70;;;;;;;;;;4987304;28;99408;-62
2023/10/10 06:15:33;;;;;;;71.07;35.15;;;;;;;;;;4986517;28;98895;-62
2023/10/10 06:18:11;;;;;;;61.37;33.67;;;;;;;;;;4988851;28;99188;-63
2023/10/10 06:20:42;;;;;;;61.95;32.78;;;;;;;;;;4989876;28;99826;-63
2023/10/10 06:23:25;;;;;;;67.40;33.83;;;;;;;;;;4987759;28;99423;-62
2023/10/10 06:25:58;;;;;;;70.88;32.50;;;;;;;;;;4990933;28;99801;-62
2023/10/10 06:28:28;;;;;;;58.90;31.88;;;;;;;;;;4988875;28;97745;-63
2023/10/10 06:30:55;;;;;;;60.85;33.50;;;;;;;;;;4990989;28;98769;-63
2023/10/10 06:33:28;;;;;;;63.95;33.65;;;;;;;;;;4987021;28;99624;-63
2023/10/10 06:38:46;;;;;;;60.97;33.67;;;;;;;;;;4990649;28;100111;-63
2023/10/10 06:41:17;;;;;;;62.15;32.90;;;;;;;;;;4989971;28;100505;-62
2023/10/10 06:43:46;;;;;;;61.20;34.10;;;;;;;;;;4993924;28;98590;-63
2023/10/10 06:46:17;;;;;;;61.03;34.08;;;;;;;;;;4990733;28;99466;-62
2023/10/10 06:48:47;;;;;;;63.97;33.85;;;;;;;;;;4990002;28;98466;-63
2023/10/10 06:51:15;;;;;;;62.55;33.33;;;;;;;;;;4990516;28;99577;-63
2023/10/10 06:53:45;;;;;;;61.95;33.17;;;;;;;;;;4991548;28;98795;-62
2023/10/10 06:56:17;;;;;;;58.17;32.92;;;;;;;;;;4991037;28;98780;-63
2023/10/10 06:58:44;;;;;;;58.08;33.03;;;;;;;;;;4990359;28;99202;-63
2023/10/10 07:01:11;;;;;;;65.68;33.97;;;;;;;;;;4988916;28;100105;-63
2023/10/10 07:03:39;;;;;;;54.72;33.13;;;;;;;;;;4993973;28;98630;-65
2023/10/10 07:06:08;;;;;;;71.28;34.30;;;;;;;;;;4991019;28;100729;-65
2023/10/10 07:08:35;;;;;;;61.55;33.45;;;;;;;;;;4990023;28;98655;-65
2023/10/10 07:11:02;;;;;;;61.33;32.17;;;;;;;;;;4990058;28;99171;-65
2023/10/10 07:13:31;;;;;;;60.47;34.28;;;;;;;;;;4990753;28;99427;-65
2023/10/10 07:15:58;;;;;;;59.72;32.28;;;;;;;;;;4990050;28;98530;-65
2023/10/10 07:18:25;;;;;;;59.10;33.10;;;;;;;;;;4990760;28;99574;-65
2023/10/10 07:24:02;;;;;;;49.92;31.02;;;;;;;;;;4988345;28;98767;-65
2023/10/10 07:26:30;;;;;;;53.90;31.48;;;;;;;;;;4990203;28;102243;-65
2023/10/10 07:29:22;;;;;;;56.00;31.83;;;;;;;;;;4986936;28;98585;-65
2023/10/10 07:31:43;;;;;;;57.72;31.45;;;;;;;;;;4989205;28;100229;-65
2023/10/10 07:34:15;;;;;;;53.55;31.83;;;;;;;;;;4988451;28;99386;-65
2023/10/10 07:36:43;;;;;;;55.22;31.58;;;;;;;;;;4989906;28;98905;-65
2023/10/10 07:41:57;;;;;;;51.38;31.20;;;;;;;;;;4985648;28;99600;-65
2023/10/10 07:44:23;;;;;;;58.97;32.72;;;;;;;;;;4986974;28;97721;-65
2023/10/10 07:49:35;;;;;;;58.33;32.35;;;;;;;;;;4990670;28;100149;-65
2023/10/10 07:52:04;;;;;;;54.33;31.48;;;;;;;;;;4989199;28;100247;-65
2023/10/10 07:54:41;;;;;;;57.35;31.27;;;;;;;;;;4989504;28;99555;-65
2023/10/10 07:57:17;;;;;;;64.55;30.88;;;;;;;;;;4989204;28;98613;-65
2023/10/10 07:59:44;;;;;;;50.88;31.58;;;;;;;;;;4989435;28;100247;-65
2023/10/10 08:05:11;;;;;;;55.42;29.73;;;;;;;;;;4980845;28;98689;-65
2023/10/10 08:07:37;;;;;;;55.22;28.95;;;;;;;;;;4989423;28;99736;-65
2023/10/10 08:10:13;;;;;;;46.03;29.50;;;;;;;;;;4989018;28;98933;-65
2023/10/10 08:12:41;;;;;;;45.70;28.90;;;;;;;;;;4993478;28;98503;-64
2023/10/10 08:15:26;;;;;;;46.55;28.42;;;;;;;;;;4988719;28;99445;-66
2023/10/10 08:17:54;;;;;;;46.45;28.40;;;;;;;;;;4989383;28;99495;-65
2023/10/10 08:20:35;;;;;;;50.63;29.38;;;;;;;;;;4990250;28;100974;-65
2023/10/10 08:23:03;;;;;;;51.22;29.23;;;;;;;;;;4988952;28;99848;-65
2023/10/10 08:25:30;;;;;;;44.83;28.45;;;;;;;;;;4989146;28;98521;-64
2023/10/10 08:27:58;;;;;;;46.88;27.73;;;;;;;;;;4986210;28;99212;-65
2023/10/10 08:30:28;;;;;;;47.05;28.77;;;;;;;;;;4988952;28;100444;-64
2023/10/10 08:32:55;;;;;;;49.80;29.25;;;;;;;;;;4989228;28;98658;-64
2023/10/10 08:35:23;;;;;;;48.40;28.27;;;;;;;;;;4993068;28;99143;-64
2023/10/10 08:37:50;;;;;;;45.50;28.35;;;;;;;;;;4988977;28;98500;-64
2023/10/10 08:40:19;;;;;;;44.42;26.85;;;;;;;;;;4989445;28;100306;-65
2023/10/10 08:42:50;;;;;;;42.80;27.02;;;;;;;;;;4988398;28;100265;-65
2023/10/10 08:45:23;;;;;;;47.40;26.95;;;;;;;;;;4988757;28;98650;-65
2023/10/10 08:47:50;;;;;;;47.65;28.00;;;;;;;;;;4988856;28;100443;-65
2023/10/10 08:50:17;;;;;;;47.05;26.25;;;;;;;;;;4988688;28;99546;-65
2023/10/10 08:52:43;;;;;;;45.17;25.67;;;;;;;;;;4989051;28;98483;-65
2023/10/10 08:55:11;;;;;;;46.08;25.52;;;;;;;;;;4991699;28;99193;-65
2023/10/10 08:57:38;;;;;;;42.50;24.77;;;;;;;;;;4989134;28;98628;-65
2023/10/10 09:00:17;;;;;;;39.63;24.98;;;;;;;;;;4989360;28;99223;-66
2023/10/10 09:02:44;;;;;;;46.15;25.02;;;;;;;;;;4988356;28;99599;-65
2023/10/10 09:05:14;;;;;;;41.42;25.35;;;;;;;;;;4987875;28;99065;-65
2023/10/10 09:07:43;;;;;;;39.20;24.00;;;;;;;;;;4988374;28;99168;-65
2023/10/10 09:10:16;;;;;;;43.78;24.08;;;;;;;;;;4988128;28;99885;-65
2023/10/10 09:13:01;;;;;;;39.28;23.27;;;;;;;;;;4989213;28;98457;-65
2023/10/10 09:15:28;;;;;;;39.05;23.05;;;;;;;;;;4984661;28;99226;-65
2023/10/10 09:18:17;;;;;;;41.08;22.38;;;;;;;;;;4991663;28;99446;-65
2023/10/10 09:20:46;;;;;;;42.25;23.15;;;;;;;;;;4986955;28;100454;-65
2023/10/10 09:23:21;;;;;;;39.00;21.88;;;;;;;;;;4989081;28;99429;-65
2023/10/10 09:26:04;;;;;;;32.88;21.08;;;;;;;;;;4989935;28;98037;-62
2023/10/10 09:28:42;;;;;;;40.10;21.95;;;;;;;;;;4985207;28;99564;-62
2023/10/10 09:31:19;;;;;;;38.42;21.63;;;;;;;;;;4986010;28;99622;-63
2023/10/10 09:33:47;;;;;;;43.42;20.85;;;;;;;;;;4987523;28;99243;-63
2023/10/10 09:36:19;;;;;;;34.70;20.17;;;;;;;;;;4988913;28;100987;-62
2023/10/10 09:38:54;;;;;;;32.28;19.65;;;;;;;;;;4987756;28;99412;-63
2023/10/10 09:50:00;;;;;;;29.15;18.40;;;;;;;;;;4984895;28;99508;-63
2023/10/10 09:57:39;;;;;;;30.08;17.67;;;;;;;;;;4987723;28;100330;-63
2023/10/10 10:00:15;;;;;;;29.40;17.20;;;;;;;;;;4987219;28;100192;-62
2023/10/10 10:02:57;;;;;;;25.20;17.00;;;;;;;;;;4987578;28;98860;-62
2023/10/10 10:05:28;;;;;;;31.40;16.52;;;;;;;;;;4990563;28;100240;-63
2023/10/10 10:08:13;;;;;;;26.65;17.27;;;;;;;;;;4988935;28;99671;-62
2023/10/10 10:10:48;;;;;;;26.42;17.88;;;;;;;;;;4984852;28;100266;-62
2023/10/10 10:13:19;;;;;;;30.83;18.05;;;;;;;;;;4987416;28;99559;-63
2023/10/10 10:16:09;;;;;;;31.55;16.83;;;;;;;;;;4987871;28;98962;-63
2023/10/10 10:18:44;;;;;;;24.73;16.20;;;;;;;;;;4985605;28;99347;-63
2023/10/10 10:21:19;;;;;;;30.90;16.65;;;;;;;;;;4987508;28;99417;-62
2023/10/10 10:23:56;;;;;;;36.90;15.57;;;;;;;;;;4987761;28;98468;-63
2023/10/10 10:26:32;;;;;;;29.02;15.02;;;;;;;;;;4986032;28;100484;-62
2023/10/10 10:29:07;;;;;;;28.80;16.00;;;;;;;;;;4990801;28;99441;-63
2023/10/10 10:31:36;;;;;;;24.08;14.38;;;;;;;;;;4983824;28;99310;-63
2023/10/10 10:34:23;;;;;;;30.52;14.70;;;;;;;;;;4984415;28;99442;-65
2023/10/10 10:37:02;;;;;;;22.50;14.05;;;;;;;;;;4986758;28;98575;-65
2023/10/10 10:39:34;;;;;;;26.10;14.90;;;;;;;;;;4987763;28;99256;-65
2023/10/10 10:42:01;;;;;;;24.17;14.43;;;;;;;;;;4986247;28;99493;-66
2023/10/10 10:44:28;;;;;;;24.52;13.80;;;;;;;;;;4988422;28;98006;-65
2023/10/10 10:46:56;;;;;;;26.20;14.73;;;;;;;;;;4987123;28;98691;-65
2023/10/10 10:49:28;;;;;;;28.23;14.63;;;;;;;;;;4987062;28;99519;-65
2023/10/10 10:52:17;;;;;;;23.73;14.02;;;;;;;;;;4989822;28;99660;-65
2023/10/10 10:54:42;;;;;;;23.23;13.60;;;;;;;;;;4983877;28;99586;-65
2023/10/10 10:57:27;;;;;;;25.13;13.07;;;;;;;;;;4987123;28;98492;-65
2023/10/10 11:00:26;;;;;;;28.80;13.75;;;;;;;;;;4987938;28;100479;-65
2023/10/10 11:02:59;;;;;;;24.15;14.05;;;;;;;;;;4987235;28;100542;-65
2023/10/10 11:05:27;;;;;;;26.30;14.07;;;;;;;;;;4986503;28;101415;-65
2023/10/10 11:08:06;;;;;;;21.60;13.32;;;;;;;;;;4988419;28;99394;-65
2023/10/10 11:10:36;;;;;;;23.50;14.63;;;;;;;;;;4987458;28;99121;-65
2023/10/10 11:13:07;;;;;;;28.15;13.95;;;;;;;;;;4994998;28;98805;-65
2023/10/10 11:15:38;;;;;;;25.50;14.00;;;;;;;;;;4986545;28;99640;-65
2023/10/10 11:18:07;;;;;;;24.10;13.20;;;;;;;;;;4988072;28;99235;-65
2023/10/10 11:21:12;;;;;;;21.95;13.20;;;;;;;;;;4990531;28;101046;-65
2023/10/10 11:23:41;;;;;;;23.23;13.57;;;;;;;;;;4984935;28;99486;-65
2023/10/10 11:26:08;;;;;;;24.10;13.25;;;;;;;;;;4989843;28;101226;-65
2023/10/10 11:28:45;;;;;;;21.63;13.40;;;;;;;;;;4986883;28;100266;-65
2023/10/10 11:31:12;;;;;;;30.02;14.18;;;;;;;;;;4986639;28;99789;-65
2023/10/10 11:34:10;;;;;;;25.17;13.48;;;;;;;;;;4990197;28;98516;-66
2023/10/10 11:36:39;;;;;;;24.48;12.55;;;;;;;;;;4989810;28;99237;-65
2023/10/10 11:39:25;;;;;;;27.73;13.20;;;;;;;;;;4986341;28;99111;-65
2023/10/10 11:41:51;;;;;;;23.63;12.85;;;;;;;;;;4987528;28;99190;-65
2023/10/10 11:44:21;;;;;;;25.58;12.40;;;;;;;;;;4988687;28;100208;-65
2023/10/10 11:46:49;;;;;;;30.13;13.55;;;;;;;;;;4989426;28;98598;-62
2023/10/10 11:49:16;;;;;;;27.38;13.88;;;;;;;;;;4989866;28;99241;-63
2023/10/10 11:51:42;;;;;;;37.22;14.43;;;;;;;;;;4993263;28;99139;-62
2023/10/10 11:54:09;;;;;;;22.38;13.38;;;;;;;;;;4989577;28;98665;-62
2023/10/10 11:56:35;;;;;;;24.65;13.68;;;;;;;;;;4990546;28;99211;-63
2023/10/10 11:59:13;;;;;;;29.38;14.38;;;;;;;;;;4993432;28;100399;-63
2023/10/10 12:01:51;;;;;;;31.10;14.25;;;;;;;;;;4987304;28;98328;-63
2023/10/10 12:04:21;;;;;;;26.65;14.50;;;;;;;;;;4989185;28;100533;-63
2023/10/10 12:06:47;;;;;;;22.80;13.52;;;;;;;;;;4990065;28;98822;-63
2023/10/10 12:09:18;;;;;;;23.30;12.45;;;;;;;;;;4987519;28;99939;-63
2023/10/10 12:11:45;;;;;;;26.42;12.82;;;;;;;;;;4989140;28;99463;-63
2023/10/10 12:14:18;;;;;;;22.60;13.73;;;;;;;;;;4989493;28;98863;-64
2023/10/10 12:16:50;;;;;;;33.35;12.63;;;;;;;;;;4989334;28;99117;-63
2023/10/10 12:19:16;;;;;;;24.95;13.35;;;;;;;;;;4988475;28;99848;-63
2023/10/10 12:21:43;;;;;;;22.23;12.70;;;;;;;;;;4992841;28;98691;-63
2023/10/10 12:24:09;;;;;;;24.55;13.10;;;;;;;;;;4989804;28;99916;-63
2023/10/10 12:26:41;;;;;;;26.98;14.45;;;;;;;;;;4985322;28;97884;-63
2023/10/10 12:29:11;;;;;;;40.40;24.08;;;;;;;;;;4985967;28;98702;-61
2023/10/10 12:31:37;;;;;;;39.45;26.65;;;;;;;;;;4985500;28;99460;-61
2023/10/10 12:34:06;;;;;;;42.95;35.80;;;;;;;;;;4988568;28;99550;-61
2023/10/10 12:36:33;;;;;;;49.83;37.40;;;;;;;;;;4989431;28;101052;-61
2023/10/10 12:39:00;;;;;;;54.63;42.63;;;;;;;;;;4988080;28;99440;-61
2023/10/10 12:41:27;;;;;;;60.42;40.03;;;;;;;;;;4988166;28;98546;-61
2023/10/10 12:43:54;;;;;;;59.53;42.13;;;;;;;;;;4991270;28;99251;-62
2023/10/10 12:46:21;;;;;;;54.83;36.10;;;;;;;;;;4989146;28;98740;-61
2023/10/10 12:48:51;;;;;;;52.08;37.50;;;;;;;;;;4989247;28;99258;-62
2023/10/10 12:51:22;;;;;;;78.72;62.55;;;;;;;;;;4988202;28;100097;-61
2023/10/10 12:53:49;;;;;;;69.10;50.40;;;;;;;;;;4988823;28;98845;-62
2023/10/10 12:56:20;;;;;;;145.48;110.90;;;;;;;;;;4988959;28;100862;-62
2023/10/10 12:58:52;;;;;;;229.90;166.73;;;;;;;;;;4986631;28;100100;-62
2023/10/10 13:01:25;;;;;;;194.50;158.45;;;;;;;;;;4984098;28;98848;-61
2023/10/10 13:03:52;;;;;;;223.55;181.32;;;;;;;;;;4987287;28;99001;-61
2023/10/10 13:06:22;;;;;;;252.57;190.68;;;;;;;;;;4990995;28;99530;-61
2023/10/10 13:11:20;;;;;;;75.13;59.05;;;;;;;;;;4987126;28;99668;-61
2023/10/10 13:13:56;;;;;;;111.13;78.07;;;;;;;;;;4988080;28;98531;-61
2023/10/10 13:17:28;;;;;;;139.00;102.47;;;;;;;;;;4988824;28;100267;-61
2023/10/10 13:19:13;;;;;;;134.65;93.85;;;;;;;;;;4980539;28;100258;-62
2023/10/10 13:21:41;;;;;;;108.30;92.95;;;;;;;;;;4984756;28;98560;-61
2023/10/10 13:24:15;;;;;;;135.35;104.72;;;;;;;;;;4987386;28;99469;-62
2023/10/10 13:26:45;;;;;;;97.53;72.05;;;;;;;;;;4986968;28;98701;-61
2023/10/10 13:29:13;;;;;;;65.35;50.35;;;;;;;;;;4985205;28;99164;-61
2023/10/10 13:31:41;;;;;;;59.23;45.70;;;;;;;;;;4983200;28;99507;-62
2023/10/10 13:34:07;;;;;;;67.20;47.78;;;;;;;;;;4988036;28;98653;-62
2023/10/10 13:36:34;;;;;;;141.60;103.20;;;;;;;;;;4987773;28;99637;-62
2023/10/10 13:39:05;;;;;;;138.90;103.35;;;;;;;;;;4987294;28;99915;-62
2023/10/10 13:41:35;;;;;;;190.90;146.32;;;;;;;;;;4987579;28;98198;-62
2023/10/10 13:44:03;;;;;;;296.33;246.20;;;;;;;;;;4987344;28;98710;-61
2023/10/10 13:46:33;;;;;;;256.00;215.00;;;;;;;;;;4987351;28;99499;-61
2023/10/10 13:48:59;;;;;;;282.73;221.82;;;;;;;;;;4990344;28;102226;-62
2023/10/10 13:51:29;;;;;;;331.60;294.05;;;;;;;;;;4987473;28;100832;-61
2023/10/10 13:53:56;;;;;;;311.95;278.83;;;;;;;;;;4987446;28;98568;-61
2023/10/10 13:56:23;;;;;;;330.88;296.17;;;;;;;;;;4987072;28;99346;-61
2023/10/10 13:58:52;;;;;;;396.75;353.95;;;;;;;;;;4988586;28;100065;-61
2023/10/10 14:01:26;;;;;;;417.05;340.50;;;;;;;;;;4989581;28;98475;-62
2023/10/10 14:04:00;;;;;;;406.33;341.38;;;;;;;;;;4986061;28;100376;-64
2023/10/10 14:06:28;;;;;;;405.02;360.88;;;;;;;;;;4987650;28;99114;-64
2023/10/10 14:09:00;;;;;;;247.73;199.60;;;;;;;;;;4986335;28;98559;-64
2023/10/10 14:11:26;;;;;;;200.13;151.52;;;;;;;;;;4990262;28;99328;-64
2023/10/10 14:13:54;;;;;;;160.02;117.88;;;;;;;;;;4986190;28;99360;-64
2023/10/10 14:16:21;;;;;;;106.75;74.03;;;;;;;;;;4986822;28;101102;-63
2023/10/10 14:18:51;;;;;;;69.75;43.28;;;;;;;;;;4987415;28;98696;-64
2023/10/10 14:21:23;;;;;;;60.72;36.45;;;;;;;;;;4988203;28;98468;-63
2023/10/10 14:23:49;;;;;;;73.00;43.58;;;;;;;;;;4987003;28;99244;-63
2023/10/10 14:26:26;;;;;;;99.47;62.22;;;;;;;;;;4983780;28;100645;-64
2023/10/10 14:28:52;;;;;;;100.32;51.47;;;;;;;;;;4985261;28;98622;-62
2023/10/10 14:31:27;;;;;;;149.50;79.63;;;;;;;;;;4988170;28;100541;-62
2023/10/10 14:33:54;;;;;;;192.90;143.70;;;;;;;;;;4990456;28;99609;-62
2023/10/10 14:36:21;;;;;;;139.60;93.50;;;;;;;;;;4986312;28;99759;-62
2023/10/10 14:38:50;;;;;;;187.73;131.32;;;;;;;;;;4986703;28;100212;-62
2023/10/10 14:41:18;;;;;;;170.13;118.40;;;;;;;;;;4986245;28;98448;-62
2023/10/10 14:43:47;;;;;;;122.80;75.30;;;;;;;;;;4985766;28;100394;-62
2023/10/10 14:46:27;;;;;;;158.10;120.60;;;;;;;;;;4987506;28;100804;-62
2023/10/10 14:49:06;;;;;;;104.00;78.35;;;;;;;;;;4987995;28;99068;-62
2023/10/10 14:51:34;;;;;;;91.20;68.18;;;;;;;;;;4991120;28;99332;-62
2023/10/10 14:54:06;;;;;;;101.93;81.32;;;;;;;;;;4990094;28;99446;-62
2023/10/10 14:56:36;;;;;;;83.03;61.60;;;;;;;;;;4990623;28;101134;-61
2023/10/10 14:59:04;;;;;;;101.53;73.30;;;;;;;;;;4989826;28;100526;-62
2023/10/10 15:01:36;;;;;;;103.45;90.00;;;;;;;;;;4990048;28;98573;-62
2023/10/10 15:04:06;;;;;;;95.05;79.07;;;;;;;;;;4989825;28;99489;-62
2023/10/10 15:06:33;;;;;;;159.73;112.05;;;;;;;;;;4989762;28;99679;-62
2023/10/10 15:09:00;;;;;;;113.15;93.68;;;;;;;;;;4990149;28;98453;-62
2023/10/10 15:11:29;;;;;;;160.35;122.68;;;;;;;;;;4990403;28;99099;-62
2023/10/10 15:13:57;;;;;;;124.22;100.55;;;;;;;;;;4988857;28;99450;-61
2023/10/10 15:16:25;;;;;;;184.73;135.95;;;;;;;;;;4989696;28;98535;-62
2023/10/10 15:18:52;;;;;;;247.27;190.83;;;;;;;;;;4992577;28;99312;-61
2023/10/10 15:21:21;;;;;;;167.13;125.25;;;;;;;;;;4989836;28;97688;-62
2023/10/10 15:23:48;;;;;;;176.20;139.82;;;;;;;;;;4985978;28;98596;-61
2023/10/10 15:26:18;;;;;;;227.23;177.07;;;;;;;;;;4989471;28;99512;-62
2023/10/10 15:28:44;;;;;;;205.23;157.88;;;;;;;;;;4985260;28;99613;-62
2023/10/10 15:31:12;;;;;;;229.18;170.80;;;;;;;;;;4989356;28;100025;-62
2023/10/10 15:33:43;;;;;;;204.93;161.38;;;;;;;;;;4988532;28;99494;-62
2023/10/10 15:36:11;;;;;;;130.80;90.53;;;;;;;;;;4989959;28;98779;-62
2023/10/10 15:38:38;;;;;;;212.25;161.40;;;;;;;;;;4992915;28;99413;-62
2023/10/10 15:41:21;;;;;;;293.80;227.55;;;;;;;;;;4988505;28;98631;-61
2023/10/10 15:43:48;;;;;;;161.60;139.40;;;;;;;;;;4985635;28;98492;-63
2023/10/10 15:46:14;;;;;;;279.83;210.82;;;;;;;;;;4989174;28;98901;-64
2023/10/10 15:48:42;;;;;;;303.02;243.52;;;;;;;;;;4989464;28;99216;-63
2023/10/10 15:51:09;;;;;;;278.33;221.75;;;;;;;;;;4988458;28;99831;-64
2023/10/10 15:53:42;;;;;;;267.63;221.60;;;;;;;;;;4986920;28;100592;-63
2023/10/10 15:56:11;;;;;;;249.32;160.32;;;;;;;;;;4988028;28;98784;-64
2023/10/10 15:58:39;;;;;;;;;;;;;;;;;;4989214;28;99448;-64
2023/10/10 16:01:09;;;;;;;95.18;44.72;;;;;;;;;;4994457;28;130728;-63
2023/10/10 16:03:35;;;;;;;130.93;84.40;;;;;;;;;;4988856;28;99191;-63
2023/10/10 16:06:07;;;;;;;143.27;88.88;;;;;;;;;;4989506;28;100497;-63
2023/10/10 16:08:36;;;;;;;104.07;53.78;;;;;;;;;;4989746;28;98562;-63
2023/10/10 16:11:04;;;;;;;49.92;23.50;;;;;;;;;;4990290;28;99351;-63
2023/10/10 16:13:35;;;;;;;17.60;9.13;;;;;;;;;;4988767;28;100057;-63
2023/10/10 16:16:05;;;;;;;16.15;7.35;;;;;;;;;;4990675;28;98834;-63
2023/10/10 16:18:33;;;;;;;17.77;8.23;;;;;;;;;;4990306;28;99468;-63
2023/10/10 16:21:00;;;;;;;12.93;6.28;;;;;;;;;;4989737;28;99484;-63
2023/10/10 16:23:26;;;;;;;13.88;5.82;;;;;;;;;;4992959;28;98645;-63
2023/10/10 16:25:52;;;;;;;13.95;6.68;;;;;;;;;;4989986;28;99566;-63
2023/10/10 16:28:22;;;;;;;15.20;5.80;;;;;;;;;;4990522;28;98487;-64
2023/10/10 16:30:52;;;;;;;12.82;6.75;;;;;;;;;;4986541;28;99337;-63
2023/10/10 16:33:23;;;;;;;16.27;5.78;;;;;;;;;;4989689;28;99627;-63
2023/10/10 16:35:50;;;;;;;18.05;6.18;;;;;;;;;;4990870;28;97699;-63
2023/10/10 16:38:21;;;;;;;14.02;6.78;;;;;;;;;;4989268;28;98591;-63
2023/10/10 16:40:51;;;;;;;15.80;6.47;;;;;;;;;;4989949;28;100028;-63
2023/10/10 16:43:18;;;;;;;15.70;5.35;;;;;;;;;;4989624;28;99275;-62
2023/10/10 16:45:49;;;;;;;20.75;5.90;;;;;;;;;;4992472;28;99895;-63
2023/10/10 16:48:15;;;;;;;18.90;6.80;;;;;;;;;;4990466;28;98593;-63
2023/10/10 16:50:42;;;;;;;20.55;6.68;;;;;;;;;;4989477;28;99107;-63
2023/10/10 16:53:11;;;;;;;14.68;6.57;;;;;;;;;;4989853;28;100399;-63
2023/10/10 16:55:41;;;;;;;15.23;6.87;;;;;;;;;;4989851;28;98519;-63
2023/10/10 16:58:14;;;;;;;16.55;7.05;;;;;;;;;;4988835;28;99241;-63
2023/10/10 17:00:41;;;;;;;15.55;6.85;;;;;;;;;;4989172;28;98736;-63
2023/10/10 17:03:11;;;;;;;17.52;7.97;;;;;;;;;;4989376;28;98421;-63
2023/10/10 17:05:40;;;;;;;17.98;8.27;;;;;;;;;;4988964;28;102481;-63
2023/10/10 17:08:08;;;;;;;15.50;8.10;;;;;;;;;;4992092;28;100086;-63
2023/10/10 17:10:35;;;;;;;18.80;8.05;;;;;;;;;;4989540;28;99899;-64
2023/10/10 17:13:04;;;;;;;21.65;8.05;;;;;;;;;;4990141;28;100118;-63
2023/10/10 17:15:34;;;;;;;18.35;7.93;;;;;;;;;;4988976;28;98617;-64
2023/10/10 17:18:00;;;;;;;;;;;;;;;;;;4990510;28;98987;-63
2023/10/10 17:20:27;;;;;;;23.98;7.63;;;;;;;;;;4989504;28;130217;-63